Hundvaag 1 weather for Oct 2002
Month no. 184
Obs.
Da.
Temp. Dew Point Precip. Wind
Speed
Wind gusts Cloud cover Press. Humidity Wind dir. Sunny OPT
01.10.2002 12,5   1,4     0 1017,3     1  
02.10.2002 12,1   0,0     1 1018,4     1  
03.10.2002 7,8   0,0     10 1016,0        
04.10.2002 11,8   5,2     0 1014,6        
05.10.2002 9,8   7,2     0 1012,1     1  
06.10.2002 8,6   11,1     0 1017,3     1  
07.10.2002 6,6   1,1     2 1018,7        
08.10.2002 4,3   0,0     10 1018,7     1  
09.10.2002 5,6   0,0     1 1019,3     1  
10.10.2002 5,0   0,0     10 1020,7     1  
11.10.2002 4,4   0,0     10 1022,0     1  
12.10.2002 6,0   0,0     3 1021,2     1  
13.10.2002 7,5   0,0     2 1020,7     1  
14.10.2002 6,8   0,0     0 1018,6     1  
15.10.2002 5,7   0,0     2 1015,9        
16.10.2002 5,9   0,0     0 1010,8        
17.10.2002 0,3   0,0     10 1005,4     1  
18.10.2002 -1,2   0,0     10 1007,6     1  
19.10.2002 3,0   0,0     8 1011,5     1  
20.10.2002 3,0   15,5     1 1012,8     1  
21.10.2002 3,5   2,8     0 1012,0        
22.10.2002 4,7   0,0     1 1005,5        
23.10.2002 9,3   4,0     1 986,5        
24.10.2002 7,3   9,3     0 997,5     1  
25.10.2002 5,1   9,4     0 998,6        
26.10.2002 7,5   16,7     7 993,4     1  
27.10.2002 6,4   3,0     0 998,4        
28.10.2002 5,5   5,4     0 1007,4     1  
29.10.2002 5,6   3,6     2 1013,1        
30.10.2002 3,0   3,4     10 1012,7     1  
31.10.2002 8,2   3,8     0 1011,8     1  
Avrg/Sum 6,2   102,9     3,3 1011,5     20